Time;durP1;ratioP1;P1;durP2;ratioP2;P2;SDS_P1;SDS_P2;PMS_P1;PMS_P2;Temp;Humidity;BMP_temperature;BMP_pressure;BME280_temperature;BME280_humidity;BME280_pressure;Samples;Min_cycle;Max_cycle;Signal;HPM_P1;HPM_P2
2021/09/28 00:01:43;;;;;;;8.27;6.07;;;;;;;;;;5067409;28;20052;-72
2021/09/28 00:04:09;;;;;;;6.05;4.72;;;;;;;;;;5066357;28;20052;-72
2021/09/28 00:06:37;;;;;;;10.05;6.07;;;;;;;;;;5068011;28;20082;-73
2021/09/28 00:09:04;;;;;;;9.13;6.05;;;;;;;;;;5067635;28;20059;-73
2021/09/28 00:11:30;;;;;;;9.80;5.88;;;;;;;;;;5065145;28;20048;-73
2021/09/28 00:13:58;;;;;;;11.75;6.97;;;;;;;;;;5065545;28;20061;-73
2021/09/28 00:16:25;;;;;;;12.63;7.47;;;;;;;;;;5067810;28;20049;-73
2021/09/28 00:18:51;;;;;;;10.98;6.78;;;;;;;;;;5067653;28;20072;-73
2021/09/28 00:21:17;;;;;;;12.38;8.07;;;;;;;;;;5069347;28;20055;-73
2021/09/28 00:23:45;;;;;;;13.07;8.38;;;;;;;;;;5067072;28;20041;-73
2021/09/28 00:26:12;;;;;;;15.60;9.93;;;;;;;;;;5066950;28;20037;-73
2021/09/28 00:28:38;;;;;;;13.25;9.07;;;;;;;;;;5068378;28;20049;-72
2021/09/28 00:31:05;;;;;;;12.70;7.53;;;;;;;;;;5065395;28;20415;-73
2021/09/28 00:33:31;;;;;;;10.55;6.47;;;;;;;;;;5068209;28;20040;-73
2021/09/28 00:35:58;;;;;;;10.35;6.63;;;;;;;;;;5065864;28;20049;-73
2021/09/28 00:38:24;;;;;;;9.02;6.00;;;;;;;;;;5069041;28;20071;-73
2021/09/28 00:40:52;;;;;;;8.85;6.43;;;;;;;;;;5066856;28;20434;-73
2021/09/28 00:43:19;;;;;;;9.77;6.57;;;;;;;;;;5068229;28;20049;-73
2021/09/28 00:45:45;;;;;;;13.82;6.15;;;;;;;;;;5067800;28;20061;-73
2021/09/28 00:48:13;;;;;;;9.57;5.97;;;;;;;;;;5066116;28;20048;-73
2021/09/28 00:50:40;;;;;;;10.52;5.97;;;;;;;;;;5062426;28;20174;-72
2021/09/28 00:53:06;;;;;;;9.68;5.90;;;;;;;;;;5066356;28;20404;-73
2021/09/28 00:55:33;;;;;;;10.40;6.32;;;;;;;;;;5066086;28;20168;-72
2021/09/28 00:58:05;;;;;;;8.75;6.57;;;;;;;;;;5067569;28;20060;-73
2021/09/28 01:00:32;;;;;;;9.45;6.05;;;;;;;;;;5068511;28;20056;-73
2021/09/28 01:02:58;;;;;;;10.85;7.70;;;;;;;;;;5067750;28;20044;-74
2021/09/28 01:05:25;;;;;;;9.95;5.97;;;;;;;;;;5066887;28;20053;-73
2021/09/28 01:07:51;;;;;;;10.38;6.50;;;;;;;;;;5066873;28;20057;-73
2021/09/28 01:10:19;;;;;;;9.98;6.80;;;;;;;;;;5087295;28;20561;-72
2021/09/28 01:12:45;;;;;;;10.63;6.78;;;;;;;;;;5085033;28;20060;-73
2021/09/28 01:15:13;;;;;;;9.43;6.07;;;;;;;;;;5086289;28;20055;-73
2021/09/28 01:17:41;;;;;;;9.23;6.53;;;;;;;;;;5084447;28;20048;-73
2021/09/28 01:20:08;;;;;;;12.68;8.00;;;;;;;;;;5086872;28;20045;-72
2021/09/28 01:22:36;;;;;;;11.63;6.63;;;;;;;;;;5085483;28;20044;-73
2021/09/28 01:25:03;;;;;;;15.27;7.93;;;;;;;;;;5086980;28;20067;-73
2021/09/28 01:27:35;;;;;;;10.13;6.45;;;;;;;;;;5088946;28;20059;-72
2021/09/28 01:30:02;;;;;;;10.35;6.88;;;;;;;;;;5084254;28;20060;-73
2021/09/28 01:32:28;;;;;;;9.68;6.38;;;;;;;;;;5088477;28;20049;-73
2021/09/28 01:34:55;;;;;;;9.45;6.18;;;;;;;;;;5085270;28;20064;-73
2021/09/28 01:37:21;;;;;;;10.40;6.90;;;;;;;;;;5091150;28;20048;-72
2021/09/28 01:39:49;;;;;;;9.80;6.68;;;;;;;;;;5085967;28;20078;-72
2021/09/28 01:42:15;;;;;;;13.00;6.55;;;;;;;;;;5083903;28;20040;-72
2021/09/28 01:44:42;;;;;;;9.73;6.25;;;;;;;;;;5085035;28;20048;-71
2021/09/28 01:47:08;;;;;;;9.98;6.47;;;;;;;;;;5088516;28;20105;-72
2021/09/28 01:49:35;;;;;;;10.35;6.57;;;;;;;;;;5086054;28;20044;-72
2021/09/28 01:52:01;;;;;;;10.00;5.82;;;;;;;;;;5085892;28;20806;-72
2021/09/28 01:54:28;;;;;;;9.95;6.65;;;;;;;;;;5083598;28;20047;-73
2021/09/28 01:56:56;;;;;;;10.40;6.43;;;;;;;;;;5080575;28;20098;-72
2021/09/28 01:59:22;;;;;;;10.13;6.72;;;;;;;;;;5084390;28;20047;-73
2021/09/28 02:01:49;;;;;;;10.95;7.00;;;;;;;;;;5085880;28;20525;-72
2021/09/28 02:04:15;;;;;;;10.95;6.32;;;;;;;;;;5091666;28;20047;-73
2021/09/28 02:06:44;;;;;;;11.35;7.18;;;;;;;;;;5085187;28;20059;-72
2021/09/28 02:09:10;;;;;;;9.07;5.70;;;;;;;;;;5086620;28;20060;-72
2021/09/28 02:11:38;;;;;;;14.43;7.88;;;;;;;;;;5089043;28;20040;-72
2021/09/28 02:14:08;;;;;;;10.23;7.05;;;;;;;;;;5088907;28;20045;-73
2021/09/28 02:16:34;;;;;;;12.75;7.10;;;;;;;;;;5091784;28;20067;-72
2021/09/28 02:19:00;;;;;;;12.77;8.05;;;;;;;;;;5088740;28;20792;-73
2021/09/28 02:21:27;;;;;;;16.73;10.05;;;;;;;;;;5088580;28;20059;-72
2021/09/28 02:23:53;;;;;;;13.20;7.65;;;;;;;;;;5087802;28;20044;-73
2021/09/28 02:26:20;;;;;;;13.55;8.23;;;;;;;;;;5087619;28;20489;-72
2021/09/28 02:28:47;;;;;;;15.35;9.48;;;;;;;;;;5089491;28;20052;-71
2021/09/28 02:31:15;;;;;;;15.50;9.18;;;;;;;;;;5088427;28;20045;-71
2021/09/28 02:33:41;;;;;;;15.52;10.30;;;;;;;;;;5087383;28;20040;-72
2021/09/28 02:36:08;;;;;;;18.02;10.05;;;;;;;;;;5088570;28;20497;-73
2021/09/28 02:38:34;;;;;;;15.18;9.85;;;;;;;;;;5085472;28;20071;-71
2021/09/28 02:41:00;;;;;;;18.25;11.88;;;;;;;;;;5086732;28;20055;-72
2021/09/28 02:43:27;;;;;;;17.83;10.45;;;;;;;;;;5091060;28;20040;-74
2021/09/28 02:45:53;;;;;;;17.73;11.45;;;;;;;;;;5087912;28;20576;-73
2021/09/28 02:48:21;;;;;;;17.83;11.80;;;;;;;;;;5087229;28;20434;-72
2021/09/28 02:50:48;;;;;;;21.45;13.07;;;;;;;;;;5089793;28;20052;-72
2021/09/28 02:53:15;;;;;;;18.85;12.02;;;;;;;;;;5088179;28;20154;-73
2021/09/28 02:55:41;;;;;;;17.50;10.88;;;;;;;;;;5087266;28;20052;-72
2021/09/28 02:58:08;;;;;;;18.23;12.25;;;;;;;;;;5087682;28;20060;-71
2021/09/28 03:00:34;;;;;;;16.60;11.35;;;;;;;;;;5085076;28;20437;-72
2021/09/28 03:03:01;;;;;;;18.48;11.15;;;;;;;;;;5084103;28;20393;-72
2021/09/28 03:05:29;;;;;;;18.15;11.13;;;;;;;;;;5087663;28;20056;-71
2021/09/28 03:07:55;;;;;;;17.10;10.20;;;;;;;;;;5087770;28;20048;-72
2021/09/28 03:10:21;;;;;;;15.02;9.75;;;;;;;;;;5086874;28;20047;-73
2021/09/28 03:12:48;;;;;;;15.50;10.10;;;;;;;;;;5089216;28;20059;-72
2021/09/28 03:15:14;;;;;;;12.90;8.95;;;;;;;;;;5088862;28;20600;-71
2021/09/28 03:17:41;;;;;;;12.93;9.32;;;;;;;;;;5087173;28;20044;-71
2021/09/28 03:20:09;;;;;;;11.75;8.20;;;;;;;;;;5086106;28;20501;-73
2021/09/28 03:22:36;;;;;;;11.70;8.45;;;;;;;;;;5087900;28;20055;-71
2021/09/28 03:25:04;;;;;;;10.98;7.15;;;;;;;;;;5083815;28;20059;-73
2021/09/28 03:27:31;;;;;;;8.60;5.47;;;;;;;;;;5088753;28;20048;-72
2021/09/28 03:29:57;;;;;;;10.27;5.45;;;;;;;;;;5082494;28;20047;-71
2021/09/28 03:32:24;;;;;;;10.50;5.55;;;;;;;;;;5087240;28;20055;-73
2021/09/28 03:34:50;;;;;;;6.38;4.07;;;;;;;;;;5107212;28;20070;-72
2021/09/28 03:37:16;;;;;;;4.85;3.08;;;;;;;;;;5107067;28;20054;-72
2021/09/28 03:39:44;;;;;;;5.32;3.22;;;;;;;;;;5106072;28;20059;-72
2021/09/28 03:42:11;;;;;;;3.80;2.45;;;;;;;;;;5108869;28;20144;-73
2021/09/28 03:44:37;;;;;;;3.60;2.13;;;;;;;;;;5110514;28;20050;-73
2021/09/28 03:47:04;;;;;;;3.53;1.83;;;;;;;;;;5107662;28;20047;-73
2021/09/28 03:49:31;;;;;;;2.80;1.77;;;;;;;;;;5110841;28;20060;-73
2021/09/28 03:51:57;;;;;;;3.35;1.77;;;;;;;;;;5107903;28;20050;-74
2021/09/28 03:54:24;;;;;;;3.50;1.92;;;;;;;;;;5108818;28;20035;-73
2021/09/28 03:56:52;;;;;;;2.95;1.63;;;;;;;;;;5107347;28;20062;-73
2021/09/28 03:59:18;;;;;;;2.15;1.35;;;;;;;;;;5109692;28;20052;-73
2021/09/28 04:01:45;;;;;;;2.58;1.30;;;;;;;;;;5109436;28;20390;-73
2021/09/28 04:04:11;;;;;;;2.08;1.30;;;;;;;;;;5107169;28;20047;-72
2021/09/28 04:06:38;;;;;;;2.70;1.30;;;;;;;;;;5108356;28;20050;-73
2021/09/28 04:09:04;;;;;;;3.05;0.82;;;;;;;;;;5110191;28;20051;-72
2021/09/28 04:11:31;;;;;;;1.45;0.93;;;;;;;;;;5110292;28;20043;-73
2021/09/28 04:13:59;;;;;;;1.45;0.80;;;;;;;;;;5110036;28;20397;-74
2021/09/28 04:16:27;;;;;;;2.15;1.15;;;;;;;;;;5110700;28;20039;-71
2021/09/28 04:18:54;;;;;;;1.83;0.88;;;;;;;;;;5109444;28;20055;-74
2021/09/28 04:21:20;;;;;;;2.05;0.90;;;;;;;;;;5109368;28;20051;-72
2021/09/28 04:23:49;;;;;;;1.50;0.75;;;;;;;;;;5107397;28;20052;-73
2021/09/28 04:26:16;;;;;;;2.35;0.80;;;;;;;;;;5106642;28;20477;-72
2021/09/28 04:28:43;;;;;;;0.75;0.40;;;;;;;;;;5107485;28;20039;-73
2021/09/28 04:31:14;;;;;;;1.17;0.60;;;;;;;;;;5107491;28;20060;-73
2021/09/28 04:33:40;;;;;;;0.63;0.50;;;;;;;;;;5105971;28;20521;-73
2021/09/28 04:36:07;;;;;;;2.00;0.47;;;;;;;;;;5109002;28;20478;-74
2021/09/28 04:38:33;;;;;;;1.90;0.43;;;;;;;;;;5108379;28;20052;-72
2021/09/28 04:41:00;;;;;;;0.80;0.50;;;;;;;;;;5105519;28;20395;-72
2021/09/28 04:43:27;;;;;;;0.32;0.30;;;;;;;;;;5108115;28;20658;-73
2021/09/28 04:45:53;;;;;;;0.30;0.20;;;;;;;;;;5108395;28;20413;-73
2021/09/28 04:48:21;;;;;;;0.50;0.50;;;;;;;;;;5105454;28;20413;-72
2021/09/28 04:50:49;;;;;;;0.60;0.25;;;;;;;;;;5107677;28;20063;-72
2021/09/28 04:53:16;;;;;;;0.28;0.28;;;;;;;;;;5107851;28;20052;-73
2021/09/28 04:55:42;;;;;;;0.70;0.30;;;;;;;;;;5107959;28;20044;-73
2021/09/28 04:58:09;;;;;;;0.30;0.30;;;;;;;;;;5108037;28;20406;-73
2021/09/28 05:00:35;;;;;;;0.50;0.22;;;;;;;;;;5107775;28;20048;-72
2021/09/28 05:03:01;;;;;;;0.90;0.30;;;;;;;;;;5105723;28;20060;-73
2021/09/28 05:05:29;;;;;;;1.38;0.20;;;;;;;;;;5109524;28;20044;-72
2021/09/28 05:07:56;;;;;;;0.88;0.40;;;;;;;;;;5107160;28;20071;-72
2021/09/28 05:10:22;;;;;;;0.45;0.25;;;;;;;;;;5107830;28;20481;-74
2021/09/28 05:12:49;;;;;;;2.80;0.50;;;;;;;;;;5108279;28;20051;-74
2021/09/28 05:15:15;;;;;;;2.83;0.47;;;;;;;;;;5107137;28;20070;-73
2021/09/28 05:17:42;;;;;;;4.18;0.70;;;;;;;;;;5109137;28;20477;-72
2021/09/28 05:20:09;;;;;;;3.05;0.77;;;;;;;;;;5106055;28;20052;-72
2021/09/28 05:22:37;;;;;;;1.33;0.45;;;;;;;;;;5107208;28;20051;-73
2021/09/28 05:25:04;;;;;;;3.22;0.50;;;;;;;;;;5109041;28;20133;-72
2021/09/28 05:27:30;;;;;;;2.03;0.63;;;;;;;;;;5107520;28;20054;-73
2021/09/28 05:29:57;;;;;;;4.38;1.27;;;;;;;;;;5106820;28;20059;-72
2021/09/28 05:32:23;;;;;;;2.03;0.65;;;;;;;;;;5109409;28;20048;-73
2021/09/28 05:34:50;;;;;;;4.45;0.88;;;;;;;;;;5106124;28;20043;-72
2021/09/28 05:37:16;;;;;;;0.88;0.50;;;;;;;;;;5110420;28;20044;-71
2021/09/28 05:39:44;;;;;;;1.77;0.68;;;;;;;;;;5111535;28;20046;-72
2021/09/28 05:42:11;;;;;;;2.08;0.70;;;;;;;;;;5110512;28;20044;-73
2021/09/28 05:44:38;;;;;;;1.45;0.80;;;;;;;;;;5111465;28;20051;-72
2021/09/28 05:47:05;;;;;;;2.10;0.95;;;;;;;;;;5109700;28;20561;-72
2021/09/28 05:49:32;;;;;;;1.70;1.33;;;;;;;;;;5111513;28;20047;-71
2021/09/28 05:51:59;;;;;;;2.67;0.75;;;;;;;;;;5109586;28;20047;-72
2021/09/28 05:54:26;;;;;;;10.43;1.30;;;;;;;;;;5111364;28;20058;-72
2021/09/28 05:56:54;;;;;;;3.25;1.20;;;;;;;;;;5109649;28;20059;-73
2021/09/28 05:59:21;;;;;;;2.88;1.00;;;;;;;;;;5108684;28;20048;-73
2021/09/28 06:01:49;;;;;;;4.60;1.00;;;;;;;;;;5110286;28;20050;-73
2021/09/28 06:04:15;;;;;;;1.58;1.00;;;;;;;;;;5110588;28;20036;-73
2021/09/28 06:06:42;;;;;;;3.38;1.10;;;;;;;;;;5112855;28;20047;-71
2021/09/28 06:09:08;;;;;;;3.95;1.80;;;;;;;;;;5109653;28;20044;-71
2021/09/28 06:11:34;;;;;;;4.63;1.27;;;;;;;;;;5111016;28;20059;-72
2021/09/28 06:14:02;;;;;;;3.38;1.40;;;;;;;;;;5110842;28;20043;-72
2021/09/28 06:16:29;;;;;;;3.65;1.30;;;;;;;;;;5111061;28;20047;-73
2021/09/28 06:18:55;;;;;;;12.50;2.05;;;;;;;;;;5110627;28;20047;-71
2021/09/28 06:21:22;;;;;;;3.53;1.48;;;;;;;;;;5111025;28;20047;-73
2021/09/28 06:23:48;;;;;;;3.05;1.48;;;;;;;;;;5111780;27;20046;-72
2021/09/28 06:26:15;;;;;;;4.28;1.40;;;;;;;;;;5111861;28;20429;-73
2021/09/28 06:28:41;;;;;;;5.35;1.20;;;;;;;;;;5110745;28;20662;-72
2021/09/28 06:31:09;;;;;;;2.45;1.38;;;;;;;;;;5109077;28;20062;-72
2021/09/28 06:33:36;;;;;;;4.60;2.17;;;;;;;;;;5110336;28;20058;-71
2021/09/28 06:36:02;;;;;;;4.75;1.67;;;;;;;;;;5108749;28;20052;-71
2021/09/28 06:38:28;;;;;;;3.83;1.40;;;;;;;;;;5110571;28;20039;-72
2021/09/28 06:40:55;;;;;;;3.03;1.73;;;;;;;;;;5110394;28;20048;-73
2021/09/28 06:43:21;;;;;;;2.75;1.80;;;;;;;;;;5110542;28;20565;-73
2021/09/28 06:45:48;;;;;;;4.57;1.85;;;;;;;;;;5109692;27;20059;-71
2021/09/28 06:48:18;;;;;;;5.30;2.00;;;;;;;;;;5108446;28;20063;-73
2021/09/28 06:50:45;;;;;;;3.35;1.60;;;;;;;;;;5109408;28;20043;-71
2021/09/28 06:53:11;;;;;;;8.57;3.58;;;;;;;;;;5111024;28;20396;-73
2021/09/28 06:55:38;;;;;;;4.43;1.98;;;;;;;;;;5109615;28;20779;-72
2021/09/28 06:58:04;;;;;;;3.22;1.70;;;;;;;;;;5108484;28;20055;-71
2021/09/28 07:00:32;;;;;;;4.63;1.90;;;;;;;;;;5110273;28;20081;-73
2021/09/28 07:02:58;;;;;;;3.63;2.40;;;;;;;;;;5108194;28;20057;-71
2021/09/28 07:05:26;;;;;;;3.75;2.30;;;;;;;;;;5110063;28;20051;-73
2021/09/28 07:07:53;;;;;;;6.32;2.00;;;;;;;;;;5108334;28;20056;-71
2021/09/28 07:10:19;;;;;;;11.43;2.38;;;;;;;;;;5107198;28;20047;-72
2021/09/28 07:12:46;;;;;;;3.80;2.28;;;;;;;;;;5111647;28;20059;-72
2021/09/28 07:15:12;;;;;;;6.38;2.78;;;;;;;;;;5109951;28;20048;-73
2021/09/28 07:17:39;;;;;;;3.42;2.15;;;;;;;;;;5111332;28;20054;-71
2021/09/28 07:20:06;;;;;;;5.63;2.30;;;;;;;;;;5109822;28;20422;-71
2021/09/28 07:22:34;;;;;;;4.03;2.50;;;;;;;;;;5109629;28;20362;-71
2021/09/28 07:25:00;;;;;;;3.53;2.25;;;;;;;;;;5106958;28;20731;-73
2021/09/28 07:27:28;;;;;;;7.30;3.20;;;;;;;;;;5109387;28;20048;-72
2021/09/28 07:29:55;;;;;;;5.28;2.70;;;;;;;;;;5107652;28;20048;-73
2021/09/28 07:32:22;;;;;;;3.42;2.50;;;;;;;;;;5108842;28;20508;-73
2021/09/28 07:34:48;;;;;;;4.97;2.47;;;;;;;;;;5108439;28;20489;-73
2021/09/28 07:37:15;;;;;;;5.45;2.60;;;;;;;;;;5108765;28;20055;-72
2021/09/28 07:39:43;;;;;;;5.10;2.80;;;;;;;;;;5109595;28;20456;-71
2021/09/28 07:42:09;;;;;;;3.65;2.58;;;;;;;;;;5107891;28;20425;-72
2021/09/28 07:44:36;;;;;;;4.15;2.80;;;;;;;;;;5108961;28;20757;-73
2021/09/28 07:47:02;;;;;;;7.45;3.08;;;;;;;;;;5109213;28;20062;-71
2021/09/28 07:49:29;;;;;;;6.05;3.00;;;;;;;;;;5109398;28;20054;-71
2021/09/28 07:51:55;;;;;;;5.43;3.47;;;;;;;;;;5107284;28;20413;-72
2021/09/28 07:54:21;;;;;;;4.88;3.22;;;;;;;;;;5108956;28;20047;-71
2021/09/28 07:56:49;;;;;;;8.50;3.42;;;;;;;;;;5107958;28;20064;-71
2021/09/28 07:59:16;;;;;;;8.60;3.30;;;;;;;;;;5108262;28;20052;-72
2021/09/28 08:01:42;;;;;;;5.40;3.28;;;;;;;;;;5108834;28;20059;-72
2021/09/28 08:04:08;;;;;;;6.30;3.65;;;;;;;;;;5110871;28;20479;-73
2021/09/28 08:06:35;;;;;;;5.57;3.22;;;;;;;;;;5108681;28;20059;-73
2021/09/28 08:09:01;;;;;;;4.93;3.25;;;;;;;;;;5107244;28;20054;-73
2021/09/28 08:11:28;;;;;;;5.70;3.05;;;;;;;;;;5108701;28;20043;-72
2021/09/28 08:13:57;;;;;;;6.05;3.45;;;;;;;;;;5106852;28;20915;-72
2021/09/28 08:16:23;;;;;;;7.55;2.95;;;;;;;;;;5108708;28;20462;-72
2021/09/28 08:18:49;;;;;;;6.03;3.33;;;;;;;;;;5108547;28;20486;-72
2021/09/28 08:21:16;;;;;;;4.53;2.83;;;;;;;;;;5107986;28;20057;-72
2021/09/28 08:23:42;;;;;;;3.83;2.67;;;;;;;;;;5108405;28;20047;-72
2021/09/28 08:29:12;;;;;;;4.85;3.13;;;;;;;;;;5106043;28;20066;-72
2021/09/28 08:31:41;;;;;;;3.78;2.60;;;;;;;;;;5108946;28;20043;-72
2021/09/28 08:34:09;;;;;;;5.65;2.92;;;;;;;;;;5110002;28;20486;-73
2021/09/28 08:36:36;;;;;;;4.68;2.95;;;;;;;;;;5108305;28;20040;-73
2021/09/28 08:39:04;;;;;;;4.57;2.50;;;;;;;;;;5106565;28;20044;-73
2021/09/28 08:41:31;;;;;;;5.57;2.90;;;;;;;;;;5108358;28;20047;-72
2021/09/28 08:43:57;;;;;;;6.68;3.15;;;;;;;;;;5106162;28;20463;-72
2021/09/28 08:46:25;;;;;;;12.55;3.58;;;;;;;;;;5108114;28;20039;-72
2021/09/28 08:48:52;;;;;;;9.07;2.75;;;;;;;;;;5106733;28;20131;-72
2021/09/28 08:51:19;;;;;;;4.75;3.15;;;;;;;;;;5107627;28;20504;-74
2021/09/28 08:53:45;;;;;;;3.67;2.28;;;;;;;;;;5108041;28;20066;-73
2021/09/28 08:56:14;;;;;;;6.10;2.85;;;;;;;;;;5105887;28;20051;-73
2021/09/28 08:58:55;;;;;;;4.97;2.50;;;;;;;;;;5106800;28;20108;-72
2021/09/28 09:01:22;;;;;;;4.10;2.50;;;;;;;;;;5109900;28;20047;-73
2021/09/28 09:03:48;;;;;;;5.88;2.80;;;;;;;;;;5111246;28;20463;-73
2021/09/28 09:06:17;;;;;;;5.47;3.33;;;;;;;;;;5107565;28;20067;-73
2021/09/28 09:08:48;;;;;;;4.05;2.65;;;;;;;;;;5106294;28;20051;-74
2021/09/28 09:11:16;;;;;;;5.68;2.90;;;;;;;;;;5110367;28;20505;-74
2021/09/28 09:13:44;;;;;;;4.50;2.78;;;;;;;;;;5108986;28;20501;-73
2021/09/28 09:16:13;;;;;;;6.85;3.28;;;;;;;;;;5109540;28;20070;-73
2021/09/28 09:18:40;;;;;;;4.57;2.80;;;;;;;;;;5104966;28;20049;-74
2021/09/28 09:21:08;;;;;;;4.53;2.53;;;;;;;;;;5107790;28;20398;-73
2021/09/28 09:23:37;;;;;;;4.30;2.92;;;;;;;;;;5107477;28;20055;-72
2021/09/28 09:26:10;;;;;;;4.93;2.22;;;;;;;;;;5110635;28;20051;-72
2021/09/28 09:28:38;;;;;;;6.10;2.15;;;;;;;;;;5107336;28;20055;-73
2021/09/28 09:31:31;;;;;;;4.97;2.35;;;;;;;;;;5106030;28;20040;-74
2021/09/28 09:34:07;;;;;;;4.22;2.25;;;;;;;;;;5106936;28;20047;-73
2021/09/28 09:36:34;;;;;;;3.47;2.22;;;;;;;;;;5107638;28;20470;-73
2021/09/28 09:39:03;;;;;;;5.00;2.50;;;;;;;;;;5104469;28;20048;-73
2021/09/28 09:41:31;;;;;;;2.92;2.10;;;;;;;;;;5107224;28;20093;-73
2021/09/28 09:44:06;;;;;;;4.07;2.40;;;;;;;;;;5103941;28;20383;-73
2021/09/28 09:46:41;;;;;;;4.20;2.30;;;;;;;;;;5107345;28;20046;-74
2021/09/28 09:49:08;;;;;;;2.85;2.00;;;;;;;;;;5106234;28;20101;-73
2021/09/28 09:51:41;;;;;;;3.45;2.05;;;;;;;;;;5107826;28;20540;-73
2021/09/28 09:54:09;;;;;;;4.30;1.92;;;;;;;;;;5107331;28;20090;-73
2021/09/28 09:56:47;;;;;;;3.33;2.20;;;;;;;;;;5103176;28;20473;-73
2021/09/28 09:59:15;;;;;;;4.30;1.88;;;;;;;;;;5107561;28;20048;-72
2021/09/28 10:01:42;;;;;;;3.67;2.33;;;;;;;;;;5105048;28;20047;-73
2021/09/28 10:04:08;;;;;;;3.58;1.90;;;;;;;;;;5105801;28;20047;-73
2021/09/28 10:06:35;;;;;;;3.53;2.08;;;;;;;;;;5107080;28;20055;-72
2021/09/28 10:09:02;;;;;;;3.22;1.80;;;;;;;;;;5105349;28;20096;-73
2021/09/28 10:11:35;;;;;;;4.18;1.92;;;;;;;;;;5107208;28;20051;-72
2021/09/28 10:14:02;;;;;;;3.67;2.00;;;;;;;;;;5105569;28;20072;-72
2021/09/28 10:16:33;;;;;;;3.15;2.05;;;;;;;;;;5105726;28;20043;-73
2021/09/28 10:19:00;;;;;;;3.20;1.85;;;;;;;;;;5105395;28;20044;-72
2021/09/28 10:21:41;;;;;;;7.68;2.75;;;;;;;;;;5106104;28;20059;-73
2021/09/28 10:24:30;;;;;;;3.30;2.08;;;;;;;;;;5111488;28;20039;-73
2021/09/28 10:27:32;;;;;;;4.57;2.30;;;;;;;;;;5108823;28;20051;-73
2021/09/28 10:29:58;;;;;;;4.60;2.05;;;;;;;;;;5108757;28;20043;-72
2021/09/28 10:32:47;;;;;;;3.35;2.10;;;;;;;;;;5110212;28;20500;-73
2021/09/28 10:35:17;;;;;;;4.78;2.00;;;;;;;;;;5110754;28;20040;-73
2021/09/28 10:37:55;;;;;;;7.20;2.58;;;;;;;;;;5111566;28;20051;-73
2021/09/28 10:40:47;;;;;;;4.10;2.08;;;;;;;;;;5108346;28;20044;-73
2021/09/28 10:43:31;;;;;;;3.38;2.00;;;;;;;;;;5111591;28;20429;-74
2021/09/28 10:46:00;;;;;;;5.32;2.00;;;;;;;;;;5113699;28;20047;-72
2021/09/28 10:48:39;;;;;;;3.25;2.35;;;;;;;;;;5113793;28;20071;-73
2021/09/28 10:51:17;;;;;;;3.70;1.60;;;;;;;;;;5113169;28;20434;-72
2021/09/28 10:53:45;;;;;;;2.47;1.77;;;;;;;;;;5109933;28;20040;-73
2021/09/28 10:56:13;;;;;;;4.57;2.20;;;;;;;;;;5112781;28;20055;-73
2021/09/28 10:58:55;;;;;;;4.68;1.65;;;;;;;;;;5107425;28;20043;-73
2021/09/28 11:01:23;;;;;;;2.67;1.73;;;;;;;;;;5107452;28;20059;-72
2021/09/28 11:04:12;;;;;;;3.50;1.63;;;;;;;;;;5108540;28;20063;-73
2021/09/28 11:07:03;;;;;;;2.90;1.70;;;;;;;;;;5110108;28;20084;-73
2021/09/28 11:09:50;;;;;;;3.45;2.00;;;;;;;;;;5110055;28;20052;-73
2021/09/28 11:12:18;;;;;;;4.43;1.83;;;;;;;;;;5109939;28;20440;-72
2021/09/28 11:14:46;;;;;;;3.83;1.65;;;;;;;;;;5112967;28;20485;-72
2021/09/28 11:17:15;;;;;;;4.18;1.92;;;;;;;;;;5105696;28;20048;-72
2021/09/28 11:19:42;;;;;;;2.85;2.00;;;;;;;;;;5102951;28;20113;-73
2021/09/28 11:22:11;;;;;;;4.93;1.90;;;;;;;;;;5105469;28;20048;-73
2021/09/28 11:24:38;;;;;;;2.70;1.70;;;;;;;;;;5109212;28;20401;-72
2021/09/28 11:27:09;;;;;;;2.45;1.67;;;;;;;;;;5109714;28;20047;-72
2021/09/28 11:29:36;;;;;;;4.25;1.60;;;;;;;;;;5109670;28;20047;-72
2021/09/28 11:32:05;;;;;;;4.45;1.80;;;;;;;;;;5109674;27;20048;-73
2021/09/28 11:34:34;;;;;;;2.83;1.60;;;;;;;;;;5110714;28;20044;-72
2021/09/28 11:37:03;;;;;;;4.72;2.08;;;;;;;;;;5106123;28;20048;-72
2021/09/28 11:39:35;;;;;;;3.03;1.83;;;;;;;;;;5111750;28;20501;-72
2021/09/28 11:42:02;;;;;;;3.25;1.48;;;;;;;;;;5104203;28;20438;-72
2021/09/28 11:44:43;;;;;;;5.38;2.00;;;;;;;;;;5109101;28;20047;-72
2021/09/28 11:47:15;;;;;;;3.00;2.03;;;;;;;;;;5106087;28;20055;-72
2021/09/28 11:49:47;;;;;;;3.33;2.08;;;;;;;;;;5105806;28;20106;-73
2021/09/28 11:52:13;;;;;;;5.03;1.80;;;;;;;;;;5105954;28;20047;-73
2021/09/28 11:54:42;;;;;;;2.70;1.70;;;;;;;;;;5109111;28;20052;-73
2021/09/28 11:57:09;;;;;;;3.38;1.83;;;;;;;;;;5105873;28;20430;-73
2021/09/28 11:59:35;;;;;;;3.85;2.00;;;;;;;;;;5109292;28;20055;-73
2021/09/28 12:02:02;;;;;;;3.20;1.65;;;;;;;;;;5109912;28;20056;-72
2021/09/28 12:04:44;;;;;;;4.03;1.73;;;;;;;;;;5107931;28;20047;-73
2021/09/28 12:07:22;;;;;;;3.70;1.58;;;;;;;;;;5109209;28;20128;-73
2021/09/28 12:09:50;;;;;;;2.75;1.88;;;;;;;;;;5107337;28;20123;-72
2021/09/28 12:12:19;;;;;;;5.15;2.00;;;;;;;;;;5108546;28;20043;-73
2021/09/28 12:14:47;;;;;;;4.35;1.70;;;;;;;;;;5106835;28;20516;-72
2021/09/28 12:17:15;;;;;;;4.90;2.30;;;;;;;;;;5107980;28;20052;-72
2021/09/28 12:19:45;;;;;;;3.92;2.03;;;;;;;;;;5107909;28;20048;-73
2021/09/28 12:22:12;;;;;;;5.07;1.92;;;;;;;;;;5107703;28;20493;-71
2021/09/28 12:24:48;;;;;;;3.85;1.88;;;;;;;;;;5108077;28;20051;-73
2021/09/28 12:27:15;;;;;;;6.32;2.25;;;;;;;;;;5107784;28;20047;-72
2021/09/28 12:29:44;;;;;;;2.35;1.67;;;;;;;;;;5109429;28;20404;-73
2021/09/28 12:32:19;;;;;;;3.55;2.15;;;;;;;;;;5110551;28;20055;-72
2021/09/28 12:34:51;;;;;;;4.43;2.17;;;;;;;;;;5106527;28;20533;-73
2021/09/28 12:37:18;;;;;;;4.03;1.65;;;;;;;;;;5108293;28;20281;-73
2021/09/28 12:39:59;;;;;;;3.20;1.90;;;;;;;;;;5107626;28;20421;-72
2021/09/28 12:42:26;;;;;;;5.18;1.80;;;;;;;;;;5106311;28;20055;-72
2021/09/28 12:44:56;;;;;;;4.85;1.77;;;;;;;;;;5108194;28;20124;-72
2021/09/28 12:47:29;;;;;;;4.82;1.60;;;;;;;;;;5106679;28;20043;-72
2021/09/28 12:49:57;;;;;;;2.75;1.75;;;;;;;;;;5104991;28;20074;-72
2021/09/28 12:52:24;;;;;;;4.63;2.33;;;;;;;;;;5108093;28;20059;-72
2021/09/28 12:54:51;;;;;;;3.30;2.13;;;;;;;;;;5106928;28;20048;-73
2021/09/28 12:57:17;;;;;;;3.72;2.40;;;;;;;;;;5111128;28;20055;-73
2021/09/28 12:59:44;;;;;;;4.22;2.95;;;;;;;;;;5107015;28;20051;-73
2021/09/28 13:02:11;;;;;;;4.88;2.80;;;;;;;;;;5106851;28;20059;-73
2021/09/28 13:04:37;;;;;;;5.78;3.20;;;;;;;;;;5107594;28;20052;-73
2021/09/28 13:07:08;;;;;;;4.95;3.22;;;;;;;;;;5104415;28;20051;-73
2021/09/28 13:09:35;;;;;;;8.32;3.25;;;;;;;;;;5106744;28;20058;-73
2021/09/28 13:12:01;;;;;;;5.47;2.30;;;;;;;;;;5105900;28;20051;-73
2021/09/28 13:14:29;;;;;;;6.85;3.28;;;;;;;;;;5107603;28;20528;-73
2021/09/28 13:16:57;;;;;;;5.68;3.30;;;;;;;;;;5105873;28;20078;-73
2021/09/28 13:19:23;;;;;;;5.18;3.00;;;;;;;;;;5107959;28;20520;-72
2021/09/28 13:21:50;;;;;;;3.88;2.60;;;;;;;;;;5106399;28;20058;-73
2021/09/28 13:24:18;;;;;;;6.65;2.75;;;;;;;;;;5105628;28;20047;-73
2021/09/28 13:26:44;;;;;;;8.20;3.97;;;;;;;;;;5107100;28;20474;-73
2021/09/28 13:29:13;;;;;;;7.05;3.53;;;;;;;;;;5106427;28;20527;-73
2021/09/28 13:31:39;;;;;;;5.18;3.00;;;;;;;;;;5108508;28;20444;-73
2021/09/28 13:34:06;;;;;;;4.85;3.08;;;;;;;;;;5107417;28;20052;-73
2021/09/28 13:36:33;;;;;;;6.22;3.00;;;;;;;;;;5107416;28;20048;-72
2021/09/28 13:39:01;;;;;;;5.28;2.97;;;;;;;;;;5104777;28;20043;-73
2021/09/28 13:41:29;;;;;;;5.13;3.17;;;;;;;;;;5106490;28;20405;-73
2021/09/28 13:43:55;;;;;;;5.65;2.70;;;;;;;;;;5107349;28;20435;-73
2021/09/28 13:46:21;;;;;;;6.90;3.50;;;;;;;;;;5107373;28;20085;-73
2021/09/28 13:48:49;;;;;;;4.80;3.20;;;;;;;;;;5106346;28;20063;-73
2021/09/28 13:51:15;;;;;;;4.25;2.83;;;;;;;;;;5106578;28;20058;-72
2021/09/28 13:53:42;;;;;;;5.70;3.78;;;;;;;;;;5101187;28;20067;-72
2021/09/28 13:56:08;;;;;;;5.47;3.03;;;;;;;;;;5107447;28;20060;-73
2021/09/28 13:58:36;;;;;;;4.70;3.13;;;;;;;;;;5107525;28;20060;-73
2021/09/28 14:01:03;;;;;;;4.93;3.05;;;;;;;;;;5111915;28;20055;-73
2021/09/28 14:03:29;;;;;;;7.50;3.80;;;;;;;;;;5113695;28;20048;-73
2021/09/28 14:05:56;;;;;;;5.60;3.47;;;;;;;;;;5109067;28;20070;-72
2021/09/28 14:08:22;;;;;;;7.82;3.45;;;;;;;;;;5111242;28;20413;-72
2021/09/28 14:10:49;;;;;;;7.35;3.63;;;;;;;;;;5106341;28;20080;-72
2021/09/28 14:13:15;;;;;;;7.15;4.10;;;;;;;;;;5112630;28;20047;-73
2021/09/28 14:15:43;;;;;;;6.50;3.50;;;;;;;;;;5109738;28;20051;-72
2021/09/28 14:18:09;;;;;;;4.93;3.42;;;;;;;;;;5110903;28;20481;-72
2021/09/28 14:20:36;;;;;;;4.90;2.85;;;;;;;;;;5110659;28;20044;-72
2021/09/28 14:23:02;;;;;;;5.30;2.78;;;;;;;;;;5111032;28;20067;-72
2021/09/28 14:25:29;;;;;;;6.00;2.75;;;;;;;;;;5110570;28;20130;-72
2021/09/28 14:27:55;;;;;;;4.20;2.90;;;;;;;;;;5108459;28;20397;-72
2021/09/28 14:30:21;;;;;;;4.00;2.70;;;;;;;;;;5112239;28;20074;-72
2021/09/28 14:32:49;;;;;;;3.45;2.22;;;;;;;;;;5108935;28;20052;-73
2021/09/28 14:35:16;;;;;;;4.18;2.60;;;;;;;;;;5112029;28;20051;-71
2021/09/28 14:37:43;;;;;;;6.15;2.80;;;;;;;;;;5109895;28;20044;-71
2021/09/28 14:40:10;;;;;;;5.35;2.50;;;;;;;;;;5109161;28;20098;-73
2021/09/28 14:42:37;;;;;;;4.82;2.80;;;;;;;;;;5110020;28;20052;-74
2021/09/28 14:45:04;;;;;;;5.88;2.63;;;;;;;;;;5108975;28;20055;-72
2021/09/28 14:47:30;;;;;;;5.85;3.00;;;;;;;;;;5110062;28;20054;-74
2021/09/28 14:49:58;;;;;;;3.83;2.53;;;;;;;;;;5108624;28;20058;-74